CheckWX is a tool to help pilots better visualize weather data.  It is not intended as a substitute for an official pre-flight weather briefing.

02:11:49 UTC

KEPH METAR
Ephrata Municipal Airport
Ephrata, Washington, USA
Current

19 mins ago

KEPH 180153Z AUTO 06006KT 10SM OVC037 M01/M04 A3020 RMK AO2 SLP241 T10061039
Observed
Feb-18 @ 01:53 UTC
Wind
  • 060° at 6 KTS
Visibility
10 SM
Flight Rules
VFR
Cloud Levels
  • Overcast at 3,700' AGL
Temperature
-1°C / 30°F
Dewpoint
-4°C / 25°F
Humidity
80%
Altimeter
30.2" Hg
Pressure
1024.1 hPa
Previous

1 hour ago

KEPH 180053Z AUTO 06006KT 10SM BKN036 BKN060 OVC100 00/M04 A3017 RMK AO2 SLP230 T00001039
Observed
Feb-18 @ 00:53 UTC
Wind
  • 060° at 6 KTS
Visibility
10 SM
Flight Rules
VFR
Cloud Levels
  • Broken at 3,600' AGL
  • Broken at 6,000' AGL
  • Overcast at 10,000' AGL
Temperature
C / 32°F
Dewpoint
-4°C / 25°F
Humidity
75%
Altimeter
30.17" Hg
Pressure
1023 hPa
Previous

2 hours ago

KEPH 172353Z AUTO 07010KT 10SM FEW022 SCT034 OVC044 01/M03 A3015 RMK AO2 SLP224 T00061033 10028 20000 51017
Observed
Feb-17 @ 23:53 UTC
Wind
  • 070° at 10 KTS
Visibility
10 SM
Flight Rules
VFR
Cloud Levels
  • Few at 2,200' AGL
  • Scattered at 3,400' AGL
  • Overcast at 4,400' AGL
Temperature
C / 34°F
Dewpoint
-3°C / 27°F
Humidity
75%
Altimeter
30.15" Hg
Pressure
1022.4 hPa